Time;durP1;ratioP1;P1;durP2;ratioP2;P2;SDS_P1;SDS_P2;PMS_P1;PMS_P2;Temp;Humidity;BMP_temperature;BMP_pressure;BME280_temperature;BME280_humidity;BME280_pressure;Samples;Min_cycle;Max_cycle;Signal;HPM_P1;HPM_P2
2023/10/13 00:00:40;;;;;;;17.95;9.43;;;16.70;99.90;;;;;;5021135;28;20057;-85
2023/10/13 00:03:14;;;;;;;19.95;9.27;;;16.60;99.90;;;;;;5005729;28;20044;-84
2023/10/13 00:05:42;;;;;;;16.38;9.40;;;16.60;99.90;;;;;;5006497;28;20833;-85
2023/10/13 00:08:09;;;;;;;19.23;9.52;;;16.60;99.90;;;;;;5006767;28;22498;-85
2023/10/13 00:10:34;;;;;;;19.27;9.63;;;16.60;99.90;;;;;;5027039;28;20018;-84
2023/10/13 00:13:15;;;;;;;16.85;9.18;;;16.50;99.90;;;;;;5015193;28;20091;-83
2023/10/13 00:15:57;;;;;;;15.25;8.38;;;16.50;99.90;;;;;;5016785;28;20038;-84
2023/10/13 00:18:33;;;;;;;20.17;9.63;;;16.50;99.90;;;;;;5041991;28;20513;-86
2023/10/13 00:21:12;;;;;;;16.90;10.15;;;16.50;99.90;;;;;;5015027;28;20060;-85
2023/10/13 00:23:39;;;;;;;17.17;9.35;;;16.40;99.90;;;;;;5011958;28;20125;-85
2023/10/13 12:14:27;;;;;;;9.75;5.22;;;24.00;99.90;;;;;;5005570;28;20060;-80
2023/10/13 12:16:53;;;;;;;6.97;4.68;;;24.00;99.90;;;;;;5005178;28;20169;-79
2023/10/13 12:19:27;;;;;;;10.02;5.13;;;24.00;99.90;;;;;;5021070;28;20034;-82
2023/10/13 12:21:57;;;;;;;8.35;4.93;;;24.10;99.90;;;;;;5001666;28;20033;-80
2023/10/13 12:24:39;;;;;;;7.18;4.30;;;24.10;99.90;;;;;;5001078;28;20034;-82
2023/10/13 12:27:23;;;;;;;8.93;4.47;;;24.20;99.90;;;;;;4993813;28;20034;-80
2023/10/13 12:29:56;;;;;;;11.05;4.65;;;24.20;99.90;;;;;;5013828;28;20478;-85
2023/10/13 12:32:24;;;;;;;9.50;4.93;;;24.20;99.90;;;;;;4996203;28;20866;-82
2023/10/13 12:54:02;;;;;;;9.70;4.35;;;24.00;99.90;;;;;;5012204;28;20022;-78
2023/10/13 12:56:28;;;;;;;9.70;4.25;;;24.00;99.90;;;;;;5008262;28;20026;-82
2023/10/13 12:58:54;;;;;;;13.65;7.85;;;24.00;99.90;;;;;;4992881;28;20443;-82
2023/10/13 13:01:20;;;;;;;9.98;4.70;;;24.00;99.90;;;;;;4994506;28;20025;-80
2023/10/13 13:03:50;;;;;;;9.88;4.60;;;24.00;99.90;;;;;;4995843;28;20510;-80
2023/10/13 13:06:25;;;;;;;;;;;24.00;99.90;;;;;;4992197;28;20050;-83
2023/10/13 13:08:55;;;;;;;7.13;4.28;;;24.00;99.90;;;;;;4992463;28;20016;-81
2023/10/13 13:11:22;;;;;;;10.77;4.93;;;24.00;99.90;;;;;;4993234;28;20029;-81
2023/10/13 13:13:48;;;;;;;10.70;4.97;;;24.10;99.90;;;;;;4987979;28;20103;-80
2023/10/13 13:16:14;;;;;;;8.60;4.22;;;24.10;99.90;;;;;;4991418;28;20034;-81
2023/10/13 13:18:43;;;;;;;7.75;4.40;;;24.10;99.90;;;;;;4986236;28;20387;-80
2023/10/13 13:21:12;;;;;;;9.23;4.07;;;24.10;99.90;;;;;;4995509;28;20026;-81
2023/10/13 13:23:39;;;;;;;8.85;4.38;;;24.20;99.90;;;;;;4987213;28;20406;-82
2023/10/13 13:26:15;;;;;;;9.02;4.20;;;24.30;99.90;;;;;;4988855;28;20044;-81
2023/10/13 13:28:42;;;;;;;8.30;4.50;;;24.30;99.90;;;;;;4988187;28;20266;-82
2023/10/13 13:31:12;;;;;;;11.27;4.50;;;24.40;99.90;;;;;;5003944;28;20033;-81
2023/10/13 13:33:43;;;;;;;;;;;24.60;99.90;;;;;;4995197;28;20034;-82
2023/10/13 13:36:13;;;;;;;10.25;4.68;;;24.70;99.90;;;;;;5009516;28;19917;-83
2023/10/13 13:38:40;;;;;;;12.70;3.75;;;24.70;99.90;;;;;;4983419;28;20050;-83
2023/10/13 13:41:15;;;;;;;13.20;4.10;;;24.90;99.40;;;;;;4990235;28;20030;-79
2023/10/13 13:43:50;;;;;;;8.25;3.67;;;25.00;98.80;;;;;;4987908;28;20069;-81
2023/10/13 13:46:24;;;;;;;6.53;3.50;;;25.20;98.70;;;;;;5007804;28;20022;-79
2023/10/13 13:48:59;;;;;;;12.63;3.75;;;25.40;96.80;;;;;;4995388;28;20050;-80
2023/10/13 13:51:28;;;;;;;9.30;3.60;;;25.60;96.50;;;;;;4991386;28;20037;-83
2023/10/13 13:53:55;;;;;;;7.68;3.58;;;25.70;98.30;;;;;;5008012;28;20029;-80
2023/10/13 13:56:20;;;;;;;8.80;3.75;;;25.80;96.10;;;;;;5005548;28;20072;-81
2023/10/13 13:58:48;;;;;;;13.88;3.63;;;25.90;96.90;;;;;;4994839;28;20038;-80
2023/10/13 14:01:25;;;;;;;12.95;3.65;;;25.90;96.10;;;;;;4998653;28;20045;-81
2023/10/13 14:03:51;;;;;;;7.30;3.55;;;25.90;95.00;;;;;;5008004;28;20046;-81
2023/10/13 14:06:26;;;;;;;9.95;3.28;;;26.00;94.40;;;;;;5011838;28;20026;-82
2023/10/13 14:08:56;;;;;;;8.52;3.70;;;26.10;93.80;;;;;;5011830;28;20022;-83
2023/10/13 14:14:28;;;;;;;8.93;3.60;;;26.20;93.10;;;;;;5007547;28;20037;-83
2023/10/13 14:17:02;;;;;;;11.95;3.35;;;26.20;92.90;;;;;;4998592;28;20062;-81
2023/10/13 14:19:28;;;;;;;11.02;3.50;;;26.20;92.60;;;;;;4985135;28;20401;-82
2023/10/13 14:21:57;;;;;;;9.90;3.53;;;26.10;92.50;;;;;;4987263;28;20037;-83
2023/10/13 14:24:33;;;;;;;;;;;26.00;92.40;;;;;;4983636;28;20407;-83
2023/10/13 14:27:07;;;;;;;7.25;3.33;;;26.00;92.80;;;;;;4983277;28;19921;-81
2023/10/13 14:29:34;;;;;;;9.57;3.33;;;25.90;91.80;;;;;;4985680;28;20114;-82
2023/10/13 14:31:59;;;;;;;11.40;3.38;;;25.90;92.30;;;;;;5002796;28;20075;-82
2023/10/13 14:34:26;;;;;;;7.82;3.15;;;25.90;91.90;;;;;;4991107;28;20128;-81
2023/10/13 14:36:54;;;;;;;6.93;3.58;;;25.90;91.60;;;;;;4987062;28;20029;-79
2023/10/13 14:39:20;;;;;;;5.72;3.28;;;25.90;91.50;;;;;;4984856;28;20040;-81
2023/10/13 14:41:47;;;;;;;6.55;3.30;;;25.80;91.50;;;;;;4985896;28;20030;-82
2023/10/13 14:44:14;;;;;;;6.18;3.08;;;25.70;92.00;;;;;;4978389;28;20034;-84
2023/10/13 14:46:39;;;;;;;8.57;3.05;;;25.60;91.40;;;;;;4987815;28;20172;-81
2023/10/13 14:49:06;;;;;;;7.55;3.13;;;25.50;91.40;;;;;;4984277;28;20057;-84
2023/10/13 14:51:31;;;;;;;11.32;3.50;;;25.50;91.40;;;;;;4987299;28;20045;-84
2023/10/13 14:54:03;;;;;;;9.43;3.92;;;25.50;91.50;;;;;;4978446;28;20163;-82
2023/10/13 14:56:29;;;;;;;7.72;3.30;;;25.40;91.90;;;;;;4981793;28;20018;-82
2023/10/13 14:58:55;;;;;;;8.60;3.30;;;25.40;92.10;;;;;;4985794;28;20029;-82
2023/10/13 15:01:24;;;;;;;8.40;3.20;;;25.40;92.10;;;;;;4997007;28;20033;-83
2023/10/13 15:03:55;;;;;;;7.72;3.60;;;25.40;91.90;;;;;;5004603;28;20109;-84
2023/10/13 15:06:25;;;;;;;8.13;3.25;;;25.40;91.80;;;;;;4988324;28;20034;-82
2023/10/13 15:08:54;;;;;;;9.82;3.05;;;25.40;92.00;;;;;;4986121;28;20029;-82
2023/10/13 15:11:21;;;;;;;10.88;3.25;;;25.40;92.30;;;;;;4988093;28;20041;-84
2023/10/13 15:13:52;;;;;;;7.05;2.95;;;25.40;92.20;;;;;;5007623;28;20111;-83
2023/10/13 15:16:22;;;;;;;10.50;3.65;;;25.10;92.30;;;;;;4985830;28;20026;-82
2023/10/13 15:18:52;;;;;;;9.30;3.90;;;25.40;92.60;;;;;;5000869;28;20026;-81
2023/10/13 15:22:16;;;;;;;11.73;3.40;;;25.40;92.70;;;;;;4979830;28;20121;-83
2023/10/13 15:24:16;;;;;;;8.95;3.53;;;25.40;92.70;;;;;;4990636;28;20222;-82
2023/10/13 15:26:48;;;;;;;10.65;3.75;;;25.40;93.30;;;;;;4991758;28;20031;-83
2023/10/13 15:29:16;;;;;;;11.05;3.55;;;25.30;93.10;;;;;;4991457;28;20046;-83
2023/10/13 15:31:54;;;;;;;8.88;3.88;;;25.30;93.90;;;;;;4992703;28;20417;-83
2023/10/13 15:34:22;;;;;;;7.65;3.15;;;25.20;94.20;;;;;;5017428;28;20036;-84
2023/10/13 15:36:52;;;;;;;9.40;3.90;;;25.20;93.30;;;;;;4994039;28;20456;-83
2023/10/13 15:39:28;;;;;;;9.80;3.50;;;25.10;93.30;;;;;;5000035;28;20120;-82
2023/10/13 15:41:58;;;;;;;10.85;3.70;;;25.10;93.60;;;;;;4996493;28;20026;-85
2023/10/13 15:44:29;;;;;;;10.50;3.28;;;25.00;93.80;;;;;;4987960;28;20026;-82
2023/10/13 15:46:56;;;;;;;7.13;3.63;;;25.10;94.90;;;;;;5016798;28;20026;-83
2023/10/13 15:49:23;;;;;;;8.32;3.72;;;24.90;93.80;;;;;;5015264;28;20025;-81
2023/10/13 15:51:49;;;;;;;10.32;4.30;;;24.90;93.90;;;;;;4996222;28;20030;-83
2023/10/13 15:54:18;;;;;;;7.32;3.75;;;24.80;94.40;;;;;;5007008;28;20034;-83
2023/10/13 15:56:54;;;;;;;8.73;3.55;;;24.70;94.90;;;;;;5011706;28;20034;-82
2023/10/13 15:59:23;;;;;;;6.70;3.20;;;24.50;95.10;;;;;;5011258;28;20027;-84
2023/10/13 16:01:54;;;;;;;8.50;3.85;;;24.40;95.20;;;;;;4992702;28;20034;-82
2023/10/13 16:04:29;;;;;;;11.63;3.95;;;24.30;95.10;;;;;;4992612;28;20034;-83
2023/10/13 16:07:05;;;;;;;;;;;;;;;;;;;;;
2023/10/13 16:09:33;;;;;;;7.30;3.92;;;24.20;95.20;;;;;;4995800;28;20116;-82
2023/10/13 16:11:59;;;;;;;9.02;3.47;;;24.10;95.20;;;;;;4998767;28;20045;-84
2023/10/13 16:14:25;;;;;;;8.80;3.03;;;23.90;95.00;;;;;;5002363;28;20034;-81
2023/10/13 16:16:52;;;;;;;10.80;3.33;;;24.00;94.20;;;;;;5015975;28;20030;-85
2023/10/13 16:19:23;;;;;;;7.65;3.10;;;23.90;94.20;;;;;;4994794;28;20137;-84
2023/10/13 16:21:52;;;;;;;8.80;3.63;;;24.10;93.80;;;;;;4995026;28;20104;-84
2023/10/13 16:24:21;;;;;;;7.32;3.15;;;24.00;94.70;;;;;;5013873;28;20479;-83
2023/10/13 16:26:52;;;;;;;7.65;3.80;;;24.10;94.50;;;;;;5014800;28;20041;-88
2023/10/13 16:29:22;;;;;;;8.60;3.08;;;23.90;94.60;;;;;;5002682;28;20030;-83
2023/10/13 16:31:53;;;;;;;12.80;3.20;;;23.90;94.10;;;;;;4996477;28;20026;-84
2023/10/13 16:34:19;;;;;;;6.63;3.38;;;23.90;93.60;;;;;;4985462;28;20042;-82
2023/10/13 16:36:55;;;;;;;9.18;3.97;;;23.90;93.40;;;;;;4994324;28;20046;-82
2023/10/13 16:39:22;;;;;;;9.77;3.35;;;24.10;93.50;;;;;;5012588;28;20076;-83
2023/10/13 16:41:51;;;;;;;8.52;3.58;;;24.00;93.10;;;;;;4993069;28;20038;-85
2023/10/13 16:44:17;;;;;;;9.13;4.03;;;23.90;93.40;;;;;;5016652;28;20030;-83
2023/10/13 16:46:46;;;;;;;6.53;3.22;;;23.90;93.40;;;;;;4994898;28;20048;-84
2023/10/13 16:49:12;;;;;;;6.55;3.45;;;23.50;93.00;;;;;;5002280;28;20033;-83
2023/10/13 16:51:40;;;;;;;8.30;2.92;;;23.90;93.20;;;;;;4990177;28;20034;-85
2023/10/13 16:54:09;;;;;;;8.55;3.10;;;23.80;93.00;;;;;;4989448;28;20037;-83
2023/10/13 16:57:00;;;;;;;6.82;3.25;;;23.80;93.40;;;;;;4985420;28;20033;-82
2023/10/13 16:59:28;;;;;;;11.88;3.70;;;23.70;93.20;;;;;;4975693;28;20032;-84
2023/10/13 17:01:57;;;;;;;5.75;2.88;;;23.70;93.00;;;;;;4983499;28;20050;-83
2023/10/13 17:04:29;;;;;;;8.80;3.03;;;23.80;92.50;;;;;;4984776;28;20136;-81
2023/10/13 17:06:58;;;;;;;9.27;3.40;;;23.90;92.60;;;;;;4991481;28;20041;-83
2023/10/13 17:09:26;;;;;;;12.98;3.85;;;23.90;93.50;;;;;;4984359;28;20029;-84
2023/10/13 17:11:53;;;;;;;7.50;3.45;;;23.80;93.50;;;;;;4998245;28;20479;-83
2023/10/13 17:14:19;;;;;;;9.93;3.80;;;23.80;92.50;;;;;;4993877;28;20472;-83
2023/10/13 17:16:45;;;;;;;7.45;3.75;;;23.70;92.80;;;;;;4996017;28;20034;-82
2023/10/13 17:19:11;;;;;;;6.15;3.40;;;23.80;92.90;;;;;;4998302;28;20033;-84
2023/10/13 17:21:44;;;;;;;7.78;3.30;;;23.80;92.60;;;;;;5008241;28;20045;-84
2023/10/13 17:24:13;;;;;;;15.25;3.70;;;23.70;92.70;;;;;;4988897;28;20026;-82
2023/10/13 17:26:38;;;;;;;6.37;3.60;;;23.70;93.00;;;;;;5003375;28;20033;-83
2023/10/13 17:29:09;;;;;;;10.50;3.20;;;23.60;93.40;;;;;;5000316;28;20289;-83
2023/10/13 17:31:34;;;;;;;8.60;3.42;;;23.50;92.90;;;;;;5002862;28;20025;-84
2023/10/13 17:34:03;;;;;;;6.55;3.40;;;23.50;94.10;;;;;;4999963;28;20026;-85
2023/10/13 17:36:29;;;;;;;10.07;3.75;;;23.50;93.40;;;;;;5009607;28;20031;-85
2023/10/13 17:38:56;;;;;;;7.72;3.28;;;23.50;93.20;;;;;;5001384;28;20102;-84
2023/10/13 17:41:23;;;;;;;10.48;3.58;;;23.50;93.20;;;;;;4993040;28;20029;-82
2023/10/13 17:43:49;;;;;;;6.95;3.70;;;23.40;93.90;;;;;;5008578;28;20025;-85
2023/10/13 17:46:14;;;;;;;11.77;3.75;;;23.50;93.60;;;;;;4976643;28;20030;-82
2023/10/13 17:48:41;;;;;;;7.00;3.55;;;23.40;93.60;;;;;;4992938;28;20315;-83
2023/10/13 17:51:10;;;;;;;6.32;3.67;;;23.40;93.70;;;;;;4998104;28;20026;-85
2023/10/13 17:53:37;;;;;;;10.93;3.70;;;23.40;93.80;;;;;;4992909;28;20034;-84
2023/10/13 17:56:15;;;;;;;6.22;3.17;;;23.40;93.90;;;;;;4977224;28;20157;-80
2023/10/13 17:58:42;;;;;;;10.48;3.92;;;23.30;94.50;;;;;;4992752;28;20113;-83
2023/10/13 18:01:16;;;;;;;8.55;3.67;;;23.30;94.20;;;;;;4971836;28;20056;-84
2023/10/13 18:04:04;;;;;;;17.70;3.92;;;23.30;94.30;;;;;;5000462;28;20061;-83
2023/10/13 18:06:31;;;;;;;6.38;3.85;;;23.20;94.50;;;;;;4988441;28;20070;-84
2023/10/13 18:08:57;;;;;;;6.88;3.78;;;23.20;94.70;;;;;;4989697;28;20034;-81
2023/10/13 18:11:28;;;;;;;10.40;3.60;;;23.10;94.80;;;;;;4988317;28;20022;-83
2023/10/13 18:13:54;;;;;;;9.02;3.92;;;23.10;95.00;;;;;;5002086;28;20092;-81
2023/10/13 18:16:21;;;;;;;10.48;4.18;;;23.10;95.20;;;;;;4985051;28;20474;-84
2023/10/13 18:18:53;;;;;;;9.52;4.07;;;23.00;95.40;;;;;;4978877;28;20092;-83
2023/10/13 18:21:19;;;;;;;10.93;4.03;;;23.00;95.60;;;;;;5000450;28;20034;-84
2023/10/13 18:23:49;;;;;;;9.07;3.80;;;23.00;95.60;;;;;;4981660;28;20033;-84
2023/10/13 18:26:15;;;;;;;11.13;3.90;;;23.00;96.00;;;;;;4978936;28;20030;-85
2023/10/13 18:28:42;;;;;;;11.20;4.65;;;22.90;96.20;;;;;;4987729;28;20030;-84
2023/10/13 18:31:10;;;;;;;9.18;4.20;;;22.90;96.30;;;;;;5006993;28;20104;-85
2023/10/13 18:33:37;;;;;;;7.05;4.22;;;22.90;96.40;;;;;;5002065;28;20065;-84
2023/10/13 18:36:14;;;;;;;9.32;4.53;;;22.80;96.60;;;;;;4987136;28;20092;-85
2023/10/13 18:38:50;;;;;;;8.10;4.25;;;22.80;96.90;;;;;;4989414;28;20509;-84
2023/10/13 18:41:19;;;;;;;10.43;4.07;;;22.90;96.90;;;;;;4981977;28;20026;-86
2023/10/13 18:43:45;;;;;;;9.65;4.70;;;22.80;97.10;;;;;;4986821;28;20033;-83
2023/10/13 18:46:11;;;;;;;9.63;4.43;;;22.80;97.20;;;;;;5005076;28;20044;-84
2023/10/13 18:48:43;;;;;;;10.70;4.75;;;22.80;97.50;;;;;;5003742;28;20022;-85
2023/10/13 18:51:11;;;;;;;10.45;4.40;;;22.70;97.50;;;;;;4997884;28;20772;-84
2023/10/13 18:53:40;;;;;;;16.13;4.63;;;22.70;97.80;;;;;;5006376;28;20038;-84
2023/10/13 18:56:16;;;;;;;10.00;4.07;;;22.60;97.90;;;;;;5003648;28;20109;-83
2023/10/13 18:58:53;;;;;;;11.25;4.60;;;22.60;98.10;;;;;;4981077;28;20041;-84
2023/10/13 19:01:29;;;;;;;8.48;4.50;;;22.60;98.20;;;;;;5001994;28;20145;-82
2023/10/13 19:04:01;;;;;;;9.73;4.45;;;22.60;98.30;;;;;;4976427;28;20084;-83
2023/10/13 19:06:38;;;;;;;9.93;4.93;;;22.60;98.30;;;;;;4983834;28;20038;-86
2023/10/13 19:09:07;;;;;;;12.82;4.55;;;22.60;98.50;;;;;;4980317;28;20018;-82
2023/10/13 19:11:39;;;;;;;12.75;4.68;;;22.60;98.60;;;;;;4981789;28;20041;-83
2023/10/13 19:14:10;;;;;;;11.55;4.95;;;22.50;98.70;;;;;;4976703;28;20038;-85
2023/10/13 19:16:36;;;;;;;13.25;5.43;;;22.50;98.80;;;;;;4980045;28;20022;-82
2023/10/13 19:19:04;;;;;;;11.73;4.85;;;22.60;98.80;;;;;;4982830;28;20032;-86
2023/10/13 19:21:30;;;;;;;11.23;4.13;;;22.40;98.90;;;;;;4976828;28;20030;-82
2023/10/13 19:23:55;;;;;;;13.77;4.72;;;22.50;99.00;;;;;;4983501;28;20049;-84
2023/10/13 19:26:24;;;;;;;10.10;4.80;;;22.50;99.10;;;;;;4982463;28;20041;-86
2023/10/13 19:28:53;;;;;;;10.43;4.85;;;22.50;99.30;;;;;;4987622;28;20446;-84
2023/10/13 19:31:29;;;;;;;9.70;4.40;;;22.50;99.40;;;;;;5000532;28;20354;-85
2023/10/13 19:33:56;;;;;;;10.02;4.55;;;22.50;99.40;;;;;;4980162;28;20430;-85
2023/10/13 19:36:22;;;;;;;8.48;4.70;;;22.40;99.80;;;;;;4977943;28;20026;-83
2023/10/13 19:38:51;;;;;;;11.63;4.13;;;22.40;99.60;;;;;;4982755;28;20018;-86
2023/10/13 19:41:18;;;;;;;10.20;4.10;;;22.40;99.70;;;;;;4985194;28;20037;-85
2023/10/13 19:43:59;;;;;;;8.95;4.25;;;22.40;99.80;;;;;;4991980;28;20097;-84
2023/10/13 19:46:26;;;;;;;10.32;4.65;;;22.30;99.90;;;;;;4986138;28;20436;-84
2023/10/13 19:48:53;;;;;;;9.70;4.53;;;22.40;99.90;;;;;;4983956;28;20030;-84
2023/10/13 19:51:25;;;;;;;10.00;4.43;;;22.40;99.80;;;;;;4981974;28;20121;-83
2023/10/13 19:53:52;;;;;;;7.10;4.18;;;22.50;99.90;;;;;;4985591;28;20506;-84
2023/10/13 19:56:19;;;;;;;10.05;4.28;;;22.50;99.90;;;;;;4980824;28;20034;-85
2023/10/13 19:58:45;;;;;;;9.35;4.43;;;22.50;99.90;;;;;;4989888;28;20038;-84
2023/10/13 20:01:15;;;;;;;11.73;4.20;;;22.50;99.90;;;;;;4975948;28;20109;-84
2023/10/13 20:03:42;;;;;;;9.10;4.25;;;22.50;99.90;;;;;;4984431;28;20030;-83
2023/10/13 20:06:09;;;;;;;9.05;4.25;;;22.50;99.90;;;;;;4985695;28;20026;-82
2023/10/13 20:08:35;;;;;;;11.30;4.43;;;22.40;99.90;;;;;;4981603;28;20032;-86
2023/10/13 20:11:02;;;;;;;11.98;4.30;;;22.40;99.90;;;;;;5006746;28;20085;-83
2023/10/13 20:13:27;;;;;;;8.73;3.90;;;22.40;99.90;;;;;;5001469;28;20105;-84
2023/10/13 20:15:53;;;;;;;10.30;4.18;;;22.40;99.90;;;;;;4983386;28;20097;-84
2023/10/13 20:18:19;;;;;;;8.80;4.72;;;22.40;99.90;;;;;;4990434;28;20486;-84
2023/10/13 20:20:45;;;;;;;10.77;4.30;;;22.40;99.90;;;;;;4987162;28;20355;-82
2023/10/13 20:23:14;;;;;;;10.07;4.35;;;22.40;99.90;;;;;;4981965;28;20037;-84
2023/10/13 20:25:43;;;;;;;10.35;4.82;;;22.30;99.90;;;;;;5001992;28;20038;-82
2023/10/13 20:28:09;;;;;;;12.23;4.30;;;22.20;99.90;;;;;;4990820;28;20507;-86
2023/10/13 20:30:36;;;;;;;13.02;4.70;;;22.20;99.90;;;;;;4981584;28;20053;-84
2023/10/13 20:33:09;;;;;;;14.00;5.10;;;22.10;99.90;;;;;;4982853;28;20510;-82
2023/10/13 20:35:36;;;;;;;9.02;4.32;;;22.10;99.90;;;;;;4977901;28;20040;-83
2023/10/13 20:38:06;;;;;;;12.50;4.82;;;22.00;99.90;;;;;;4986137;28;20037;-83
2023/10/13 20:40:32;;;;;;;9.52;4.50;;;22.10;99.90;;;;;;4986208;28;20033;-83
2023/10/13 20:43:01;;;;;;;10.75;4.55;;;22.00;99.90;;;;;;4984183;28;20034;-83
2023/10/13 20:45:26;;;;;;;10.70;4.43;;;22.00;99.90;;;;;;4986168;28;20034;-84
2023/10/13 20:47:53;;;;;;;10.80;4.88;;;22.00;99.90;;;;;;4988309;28;20028;-83
2023/10/13 20:50:23;;;;;;;12.40;4.57;;;22.00;99.90;;;;;;4983598;28;20041;-85
2023/10/13 20:52:53;;;;;;;;;;;21.90;99.90;;;;;;4991151;28;20437;-85
2023/10/13 20:55:22;;;;;;;9.65;4.53;;;21.90;99.90;;;;;;4993178;28;20679;-86
2023/10/13 20:57:53;;;;;;;8.85;4.25;;;21.90;99.90;;;;;;4989058;28;20057;-86
2023/10/13 21:00:22;;;;;;;11.35;4.57;;;21.90;99.90;;;;;;4979326;28;20034;-81
2023/10/13 21:02:54;;;;;;;11.10;4.30;;;21.90;99.90;;;;;;4982892;28;20175;-84
2023/10/13 21:05:22;;;;;;;11.57;5.43;;;21.90;99.90;;;;;;4986217;28;20108;-85
2023/10/13 21:07:55;;;;;;;13.95;4.95;;;21.90;99.90;;;;;;5005579;28;20088;-84
2023/10/13 21:10:21;;;;;;;11.23;4.57;;;21.80;99.90;;;;;;5007215;28;20061;-83
2023/10/13 21:12:49;;;;;;;10.85;5.10;;;21.80;99.90;;;;;;4987902;28;20034;-84
2023/10/13 21:15:15;;;;;;;9.52;5.68;;;21.80;99.90;;;;;;4980273;28;20491;-83
2023/10/13 21:17:46;;;;;;;9.52;5.00;;;21.20;99.90;;;;;;4995985;28;20112;-84
2023/10/13 21:20:14;;;;;;;11.88;4.78;;;21.80;99.90;;;;;;4982066;28;20036;-83
2023/10/13 21:22:44;;;;;;;11.93;4.53;;;21.80;99.90;;;;;;4980196;28;20040;-86
2023/10/13 21:25:22;;;;;;;18.13;5.82;;;21.70;99.90;;;;;;4983244;28;20538;-85
2023/10/13 21:27:52;;;;;;;9.85;4.90;;;21.80;99.90;;;;;;4987026;28;20486;-85
2023/10/13 21:30:18;;;;;;;12.38;4.93;;;21.80;99.90;;;;;;4985965;28;20141;-85
2023/10/13 21:32:49;;;;;;;9.38;4.70;;;21.80;99.90;;;;;;4977352;28;20360;-87
2023/10/13 21:35:18;;;;;;;11.63;5.05;;;21.80;99.90;;;;;;4991145;28;20025;-86
2023/10/13 21:37:47;;;;;;;13.13;4.80;;;21.80;99.90;;;;;;4988232;28;20548;-85
2023/10/13 21:40:18;;;;;;;12.73;4.95;;;21.70;99.90;;;;;;5005365;28;20476;-87
2023/10/13 21:42:47;;;;;;;8.77;4.55;;;21.70;99.90;;;;;;4986350;28;20034;-85
2023/10/13 21:45:16;;;;;;;10.60;4.80;;;21.60;99.90;;;;;;4970419;28;20054;-87
2023/10/13 21:47:42;;;;;;;11.43;4.95;;;21.60;99.90;;;;;;4984987;28;20034;-84
2023/10/13 21:50:20;;;;;;;11.32;5.32;;;21.60;99.90;;;;;;4979483;28;20077;-86
2023/10/13 21:52:47;;;;;;;10.77;4.80;;;21.60;99.90;;;;;;5008251;28;20030;-86
2023/10/13 21:55:16;;;;;;;10.38;5.55;;;21.60;99.90;;;;;;4998387;28;20064;-86
2023/10/13 21:57:50;;;;;;;9.27;4.70;;;21.50;99.90;;;;;;4994047;28;20131;-86
2023/10/13 22:02:56;;;;;;;8.15;4.95;;;21.60;99.90;;;;;;5015895;28;20026;-87
2023/10/13 22:05:25;;;;;;;12.13;4.60;;;21.60;99.90;;;;;;4995446;28;20112;-86
2023/10/13 22:07:51;;;;;;;10.13;5.00;;;21.60;99.90;;;;;;4986551;28;20030;-86
2023/10/13 22:10:18;;;;;;;7.50;4.47;;;21.60;99.90;;;;;;4985625;28;20030;-85
2023/10/13 22:12:48;;;;;;;6.63;4.20;;;21.60;99.90;;;;;;4988704;28;20128;-83
2023/10/13 22:15:18;;;;;;;;;;;21.60;99.90;;;;;;4987673;28;20057;-83
2023/10/13 22:17:44;;;;;;;11.57;5.80;;;21.60;99.90;;;;;;4986046;28;19909;-82
2023/10/13 22:20:14;;;;;;;11.68;5.40;;;21.60;99.90;;;;;;4984387;28;20066;-84
2023/10/13 22:22:43;;;;;;;10.73;4.85;;;21.60;99.90;;;;;;5005687;28;20344;-82
2023/10/13 22:25:13;;;;;;;11.65;5.10;;;21.60;99.90;;;;;;4982984;28;20026;-84
2023/10/13 22:27:39;;;;;;;8.90;4.90;;;21.50;99.90;;;;;;4988691;28;20058;-83
2023/10/13 22:30:10;;;;;;;11.85;4.85;;;21.60;99.90;;;;;;4986342;28;20393;-84
2023/10/13 22:32:38;;;;;;;9.23;5.25;;;21.60;99.90;;;;;;4990360;28;20027;-83
2023/10/13 22:35:04;;;;;;;11.43;5.10;;;21.60;99.90;;;;;;4990353;28;20022;-82
2023/10/13 22:37:29;;;;;;;12.80;5.10;;;21.70;99.90;;;;;;4983659;28;20041;-82
2023/10/13 22:39:55;;;;;;;9.15;4.95;;;21.70;99.90;;;;;;4985063;28;20034;-83
2023/10/13 22:42:20;;;;;;;9.95;5.38;;;21.70;99.90;;;;;;5000131;28;20033;-84
2023/10/13 22:44:46;;;;;;;9.70;5.20;;;21.80;99.90;;;;;;4985066;28;20403;-82
2023/10/13 22:47:12;;;;;;;14.35;5.22;;;21.80;99.90;;;;;;4986576;28;23589;-83
2023/10/13 22:49:39;;;;;;;11.93;5.00;;;21.80;99.90;;;;;;4986032;28;20405;-83
2023/10/13 22:52:07;;;;;;;14.23;4.90;;;21.80;99.90;;;;;;4980153;28;20113;-83
2023/10/13 22:54:36;;;;;;;13.48;5.57;;;21.80;99.90;;;;;;4988171;28;20619;-81
2023/10/13 22:57:04;;;;;;;9.50;5.20;;;21.80;99.90;;;;;;4994518;28;20101;-84
2023/10/13 22:59:30;;;;;;;11.07;5.40;;;21.70;99.90;;;;;;4982614;28;20042;-83
2023/10/13 23:01:58;;;;;;;15.30;6.00;;;21.70;99.90;;;;;;4986706;28;20502;-81
2023/10/13 23:04:24;;;;;;;14.23;5.35;;;21.70;99.90;;;;;;4986201;28;20049;-83
2023/10/13 23:06:52;;;;;;;10.82;5.35;;;21.70;99.90;;;;;;4985585;28;20029;-84
2023/10/13 23:09:27;;;;;;;14.77;4.82;;;21.70;99.90;;;;;;4986037;28;20425;-83
2023/10/13 23:12:11;;;;;;;10.77;4.95;;;21.70;99.90;;;;;;5005202;28;20029;-82
2023/10/13 23:14:37;;;;;;;11.20;5.22;;;21.60;99.90;;;;;;5001070;28;20042;-82
2023/10/13 23:17:03;;;;;;;15.55;5.47;;;21.70;99.90;;;;;;5000495;28;20026;-85
2023/10/13 23:19:34;;;;;;;18.02;5.75;;;21.60;99.90;;;;;;5001706;28;20309;-84
2023/10/13 23:22:01;;;;;;;14.05;5.57;;;21.50;99.90;;;;;;4998558;28;20026;-83
2023/10/13 23:24:27;;;;;;;17.48;5.75;;;21.40;99.90;;;;;;4989474;28;20029;-84
2023/10/13 23:26:52;;;;;;;11.43;5.45;;;21.40;99.90;;;;;;4998763;28;20026;-83
2023/10/13 23:29:18;;;;;;;14.38;5.15;;;21.30;99.90;;;;;;4985522;28;20026;-84
2023/10/13 23:31:43;;;;;;;11.95;5.45;;;21.30;99.90;;;;;;4982405;28;20030;-83
2023/10/13 23:34:16;;;;;;;10.88;5.68;;;21.30;99.90;;;;;;4988665;28;20493;-81
2023/10/13 23:36:42;;;;;;;9.68;5.75;;;21.30;99.90;;;;;;4986898;28;20118;-84
2023/10/13 23:39:10;;;;;;;10.45;5.43;;;21.20;99.90;;;;;;4986386;28;20021;-82
2023/10/13 23:41:42;;;;;;;12.80;6.22;;;21.20;99.90;;;;;;4986211;28;20034;-82
2023/10/13 23:44:14;;;;;;;13.00;5.22;;;21.30;99.90;;;;;;5004072;28;20642;-84
2023/10/13 23:46:44;;;;;;;12.50;6.00;;;21.30;99.90;;;;;;4988112;28;20041;-83
2023/10/13 23:49:15;;;;;;;8.63;5.07;;;21.20;99.90;;;;;;4988363;28;20073;-87
2023/10/13 23:51:54;;;;;;;10.55;5.85;;;21.20;99.90;;;;;;4988577;28;20041;-85
2023/10/13 23:54:20;;;;;;;12.95;5.72;;;21.20;99.90;;;;;;4987917;28;20577;-83
2023/10/13 23:56:48;;;;;;;11.77;6.03;;;21.20;99.90;;;;;;4986073;28;20030;-87
2023/10/13 23:59:27;;;;;;;13.20;5.85;;;21.10;99.90;;;;;;4987945;28;20033;-84
